createdAt,value
2022-09-14T00:00:14.166Z,19.40
2022-09-14T00:02:42.086Z,19.50
2022-09-14T00:05:10.094Z,19.60
2022-09-14T00:07:39.268Z,19.60
2022-09-14T00:10:07.677Z,19.70
2022-09-14T00:12:35.513Z,19.70
2022-09-14T00:15:03.449Z,19.70
2022-09-14T00:17:31.388Z,19.70
2022-09-14T00:19:59.339Z,19.60
2022-09-14T00:22:27.171Z,19.50
2022-09-14T00:24:56.506Z,19.40
2022-09-14T00:27:24.412Z,19.30
2022-09-14T00:29:52.218Z,19.20
2022-09-14T00:32:20.119Z,19.20
2022-09-14T00:34:48.052Z,19.30
2022-09-14T00:37:15.906Z,19.30
2022-09-14T00:39:43.965Z,19.30
2022-09-14T00:42:16.513Z,19.20
2022-09-14T00:45:01.624Z,19.20
2022-09-14T00:47:30.448Z,19.20
2022-09-14T00:49:58.759Z,19.20
2022-09-14T00:52:28.062Z,19.20
2022-09-14T00:54:57.221Z,19.20
2022-09-14T00:57:27.219Z,19.20
2022-09-14T00:59:55.726Z,19.20
2022-09-14T01:02:24.672Z,19.10
2022-09-14T01:04:52.988Z,19.10
2022-09-14T01:07:27.418Z,19.10
2022-09-14T01:10:01.497Z,19.10
2022-09-14T01:12:36.486Z,19.10
2022-09-14T01:15:06.898Z,19.00
2022-09-14T01:17:39.940Z,19.00
2022-09-14T01:20:15.197Z,18.90
2022-09-14T01:22:45.836Z,18.90
2022-09-14T01:25:22.540Z,18.80
2022-09-14T01:27:51.963Z,18.80
2022-09-14T01:30:21.752Z,18.70
2022-09-14T01:32:52.081Z,18.70
2022-09-14T01:35:25.212Z,18.70
2022-09-14T01:37:54.948Z,18.70
2022-09-14T01:40:25.562Z,18.60
2022-09-14T01:42:58.769Z,18.50
2022-09-14T01:45:28.352Z,18.50
2022-09-14T01:47:57.802Z,18.40
2022-09-14T01:50:27.217Z,18.40
2022-09-14T01:52:57.363Z,18.40
2022-09-14T01:55:26.887Z,18.40
2022-09-14T01:57:58.344Z,18.40
2022-09-14T02:00:28.160Z,18.40
2022-09-14T02:02:58.055Z,18.40
2022-09-14T02:05:29.089Z,18.40
2022-09-14T02:07:57.434Z,18.40
2022-09-14T02:10:25.545Z,18.40
2022-09-14T02:12:54.181Z,18.30
2022-09-14T02:15:25.907Z,18.30
2022-09-14T02:17:54.333Z,18.30
2022-09-14T02:20:24.189Z,18.20
2022-09-14T02:22:52.995Z,18.10
2022-09-14T02:25:21.166Z,18.20
2022-09-14T02:27:49.203Z,18.20
2022-09-14T02:30:17.479Z,18.20
2022-09-14T02:32:50.216Z,18.10
2022-09-14T02:35:21.952Z,18.10
2022-09-14T02:37:54.307Z,18.00
2022-09-14T02:40:25.653Z,18.10
2022-09-14T02:42:59.845Z,18.10
2022-09-14T02:45:30.532Z,18.00
2022-09-14T02:48:03.195Z,18.00
2022-09-14T02:50:34.341Z,18.00
2022-09-14T02:53:06.125Z,18.00
2022-09-14T02:55:36.744Z,18.00
2022-09-14T02:58:06.260Z,18.00
2022-09-14T03:00:36.110Z,18.00
2022-09-14T03:03:05.989Z,18.00
2022-09-14T03:05:34.012Z,18.00
2022-09-14T03:08:02.100Z,18.00
2022-09-14T03:10:30.087Z,18.00
2022-09-14T03:12:58.736Z,18.00
2022-09-14T03:15:26.740Z,17.90
2022-09-14T03:17:54.757Z,17.90
2022-09-14T03:20:24.866Z,17.90
2022-09-14T03:22:52.815Z,17.90
2022-09-14T03:25:22.823Z,17.90
2022-09-14T03:27:50.939Z,18.00
2022-09-14T03:30:19.261Z,18.00
2022-09-14T03:32:48.165Z,18.10
2022-09-14T03:35:16.446Z,18.10
2022-09-14T03:37:46.201Z,18.20
2022-09-14T03:40:21.696Z,18.20
2022-09-14T03:42:50.845Z,18.30
2022-09-14T03:45:19.844Z,18.30
2022-09-14T03:47:48.077Z,18.30
2022-09-14T03:50:16.371Z,18.30
2022-09-14T03:52:45.829Z,18.40
2022-09-14T03:55:14.040Z,18.30
2022-09-14T03:57:41.930Z,18.30
2022-09-14T04:00:10.334Z,18.30
2022-09-14T04:02:41.283Z,18.30
2022-09-14T04:05:09.439Z,18.30
2022-09-14T04:07:37.464Z,18.30
2022-09-14T04:10:07.281Z,18.30
2022-09-14T04:12:35.599Z,18.30
2022-09-14T04:15:03.746Z,18.30
2022-09-14T04:17:31.532Z,18.20
2022-09-14T04:19:59.697Z,18.20
2022-09-14T04:22:27.523Z,18.10
2022-09-14T04:24:55.609Z,18.10
2022-09-14T04:27:24.910Z,18.10
2022-09-14T04:29:52.987Z,18.10
2022-09-14T04:32:22.477Z,18.00
2022-09-14T04:34:50.773Z,18.10
2022-09-14T04:37:18.624Z,18.10
2022-09-14T04:39:46.666Z,18.10
2022-09-14T04:42:14.719Z,18.10
2022-09-14T04:44:43.878Z,18.10
2022-09-14T04:47:11.859Z,18.10
2022-09-14T04:49:39.714Z,18.00
2022-09-14T04:52:07.537Z,18.00
2022-09-14T04:54:35.449Z,18.00
2022-09-14T04:57:03.281Z,18.10
2022-09-14T04:59:31.083Z,18.10
2022-09-14T05:02:00.368Z,18.10
2022-09-14T05:04:28.272Z,18.00
2022-09-14T05:06:56.312Z,18.00
2022-09-14T05:09:24.156Z,17.90
2022-09-14T05:11:52.831Z,17.90
2022-09-14T05:14:20.673Z,17.90
2022-09-14T05:16:48.581Z,17.80
2022-09-14T05:19:18.542Z,17.90
2022-09-14T05:21:46.548Z,17.90
2022-09-14T05:24:15.476Z,17.90
2022-09-14T05:26:44.113Z,17.90
2022-09-14T05:29:13.029Z,18.00
2022-09-14T05:31:40.919Z,18.00
2022-09-14T05:34:09.921Z,18.10
2022-09-14T05:36:39.215Z,18.10
2022-09-14T05:39:07.056Z,18.10
2022-09-14T05:41:34.952Z,18.10
2022-09-14T05:44:02.932Z,18.10
2022-09-14T05:46:30.901Z,18.00
2022-09-14T05:48:58.756Z,18.00
2022-09-14T05:51:29.965Z,17.90
2022-09-14T05:53:59.668Z,17.90
2022-09-14T05:56:28.571Z,17.90
2022-09-14T05:58:56.456Z,17.90
2022-09-14T06:01:25.147Z,17.90
2022-09-14T06:03:54.318Z,17.90
2022-09-14T06:06:22.464Z,17.90
2022-09-14T06:08:52.518Z,18.00
2022-09-14T06:11:23.036Z,18.10
2022-09-14T06:13:51.290Z,18.00
2022-09-14T06:16:20.187Z,18.00
2022-09-14T06:18:48.898Z,18.10
2022-09-14T06:21:19.196Z,18.10
2022-09-14T06:23:47.739Z,18.20
2022-09-14T06:26:16.152Z,18.20
2022-09-14T06:28:45.333Z,18.20
2022-09-14T06:31:13.487Z,18.20
2022-09-14T06:33:44.031Z,18.20
2022-09-14T06:36:14.601Z,18.20
2022-09-14T06:38:42.810Z,18.20
2022-09-14T06:41:12.227Z,18.20
2022-09-14T06:43:43.869Z,18.30
2022-09-14T06:46:14.616Z,18.40
2022-09-14T06:48:43.705Z,18.40
2022-09-14T06:51:12.683Z,18.50
2022-09-14T06:53:40.961Z,18.50
2022-09-14T06:56:08.809Z,18.60
2022-09-14T06:58:36.974Z,18.50
2022-09-14T07:01:05.620Z,18.50
2022-09-14T07:03:36.929Z,18.40
2022-09-14T07:06:06.451Z,18.40
2022-09-14T07:08:34.592Z,18.40
2022-09-14T07:11:04.226Z,18.50
2022-09-14T07:13:33.082Z,18.60
2022-09-14T07:16:01.079Z,18.60
2022-09-14T07:18:32.990Z,18.70
2022-09-14T07:21:06.147Z,18.70
2022-09-14T07:23:33.989Z,18.70
2022-09-14T07:26:03.138Z,18.90
2022-09-14T07:28:32.957Z,18.90
2022-09-14T07:31:01.167Z,19.00
2022-09-14T07:33:29.469Z,19.10
2022-09-14T07:36:06.638Z,19.30
2022-09-14T07:38:51.183Z,19.20
2022-09-14T07:41:20.736Z,19.20
2022-09-14T07:43:49.797Z,19.20
2022-09-14T07:46:18.289Z,19.30
2022-09-14T07:48:46.195Z,19.30
2022-09-14T07:51:15.475Z,19.20
2022-09-14T07:53:44.248Z,19.40
2022-09-14T07:56:12.866Z,19.80
2022-09-14T07:58:42.044Z,20.00
2022-09-14T08:01:11.836Z,20.00
2022-09-14T08:03:43.586Z,20.20
2022-09-14T08:06:12.187Z,20.30
2022-09-14T08:08:42.842Z,20.40
2022-09-14T08:11:12.905Z,20.50
2022-09-14T08:13:41.364Z,20.60
2022-09-14T08:16:09.738Z,20.80
2022-09-14T08:18:38.334Z,20.90
2022-09-14T08:21:06.980Z,21.20
2022-09-14T08:23:34.935Z,21.30
2022-09-14T08:26:05.103Z,21.40
2022-09-14T08:28:33.288Z,21.40
2022-09-14T08:31:04.857Z,21.50
2022-09-14T08:33:33.169Z,21.60
2022-09-14T08:36:01.141Z,21.60
2022-09-14T08:38:28.960Z,21.40
2022-09-14T08:40:57.243Z,21.40
2022-09-14T08:43:27.297Z,21.50
2022-09-14T08:45:59.346Z,21.80
2022-09-14T08:48:30.855Z,21.80
2022-09-14T08:50:58.634Z,21.50
2022-09-14T08:53:27.053Z,21.20
2022-09-14T08:55:56.605Z,21.00
2022-09-14T08:58:31.935Z,20.80
2022-09-14T09:01:03.683Z,20.70
2022-09-14T09:03:43.306Z,20.50
2022-09-14T09:06:16.057Z,20.30
2022-09-14T09:08:50.266Z,20.10
2022-09-14T09:11:20.029Z,20.10
2022-09-14T09:13:50.072Z,20.30
2022-09-14T09:16:19.834Z,20.30
2022-09-14T09:18:48.740Z,20.50
2022-09-14T09:21:17.619Z,20.40
2022-09-14T09:23:45.413Z,20.50
2022-09-14T09:26:16.917Z,20.60
2022-09-14T09:28:46.495Z,20.70
2022-09-14T09:31:16.185Z,20.80
2022-09-14T09:34:07.766Z,20.90
2022-09-14T09:36:37.761Z,20.80
2022-09-14T09:39:05.815Z,20.70
2022-09-14T09:41:38.846Z,20.50
2022-09-14T09:44:09.383Z,20.30
2022-09-14T09:46:39.318Z,20.30
2022-09-14T09:49:16.452Z,20.20
2022-09-14T09:51:45.049Z,20.20
2022-09-14T09:54:23.386Z,20.20
2022-09-14T09:56:55.922Z,20.30
2022-09-14T09:59:28.560Z,20.40
2022-09-14T10:01:58.364Z,20.60
2022-09-14T10:04:27.912Z,20.50
2022-09-14T10:06:57.678Z,20.50
2022-09-14T10:09:28.159Z,20.80
2022-09-14T10:11:59.999Z,21.10
2022-09-14T10:14:31.241Z,21.50
2022-09-14T10:17:07.492Z,22.00
2022-09-14T10:19:35.497Z,22.30
2022-09-14T10:22:17.509Z,22.40
2022-09-14T10:24:53.534Z,22.60
2022-09-14T10:27:37.147Z,22.80
2022-09-14T10:30:07.173Z,23.20
2022-09-14T10:32:37.907Z,23.10
2022-09-14T10:35:12.224Z,23.10
2022-09-14T10:37:43.303Z,23.10
2022-09-14T10:40:15.876Z,23.30
2022-09-14T10:42:50.264Z,23.30
2022-09-14T10:45:19.855Z,23.30
2022-09-14T10:47:55.882Z,23.20
2022-09-14T10:50:31.877Z,23.40
2022-09-14T10:53:11.645Z,23.90
2022-09-14T10:55:44.741Z,25.00
2022-09-14T10:58:23.763Z,26.10
2022-09-14T11:00:57.862Z,26.20
2022-09-14T11:03:35.744Z,26.00
2022-09-14T11:06:09.188Z,25.90
2022-09-14T11:08:41.871Z,26.20
2022-09-14T11:11:19.984Z,25.80
2022-09-14T11:13:53.348Z,25.80
2022-09-14T11:16:28.549Z,25.80
2022-09-14T11:19:02.328Z,25.50
2022-09-14T11:21:34.595Z,25.10
2022-09-14T11:24:06.674Z,24.50
2022-09-14T11:26:41.584Z,24.30
2022-09-14T11:29:25.441Z,24.20
2022-09-14T11:32:19.404Z,24.30
2022-09-14T11:34:47.636Z,24.20
2022-09-14T11:37:16.814Z,24.30
2022-09-14T11:39:47.901Z,24.40
2022-09-14T11:42:19.378Z,24.40
2022-09-14T11:44:48.034Z,24.40
2022-09-14T11:47:18.763Z,24.60
2022-09-14T11:49:55.283Z,24.90
2022-09-14T11:52:24.427Z,25.20
2022-09-14T11:54:53.140Z,25.50
2022-09-14T11:57:22.425Z,25.90
2022-09-14T11:59:51.902Z,26.10
2022-09-14T12:02:53.217Z,26.50
2022-09-14T12:05:30.615Z,26.70
2022-09-14T12:08:03.119Z,27.20
2022-09-14T12:10:31.445Z,27.60
2022-09-14T12:12:59.985Z,28.00
2022-09-14T12:15:34.696Z,28.20
2022-09-14T12:18:29.706Z,28.30
2022-09-14T12:21:03.525Z,28.60
2022-09-14T12:23:43.359Z,28.80
2022-09-14T12:26:38.014Z,28.80
2022-09-14T12:29:07.497Z,28.20
2022-09-14T12:31:40.143Z,28.00
2022-09-14T12:34:27.063Z,27.70
2022-09-14T12:37:28.189Z,27.70
2022-09-14T12:40:15.250Z,27.70
2022-09-14T12:42:44.523Z,27.70
2022-09-14T12:45:30.787Z,27.60
2022-09-14T12:47:58.788Z,27.30
2022-09-14T12:50:28.215Z,27.00
2022-09-14T12:53:13.837Z,26.90
2022-09-14T12:55:45.076Z,26.70
2022-09-14T12:58:20.105Z,26.60
2022-09-14T13:00:52.843Z,26.60
2022-09-14T13:03:32.388Z,26.60
2022-09-14T13:06:00.236Z,26.40
2022-09-14T13:08:28.165Z,26.30
2022-09-14T13:10:56.183Z,26.20
2022-09-14T13:13:27.990Z,26.20
2022-09-14T13:15:57.612Z,26.20
2022-09-14T13:18:30.274Z,26.20
2022-09-14T13:20:58.963Z,26.30
2022-09-14T13:23:28.956Z,26.30
2022-09-14T13:25:57.202Z,26.30
2022-09-14T13:28:28.494Z,26.20
2022-09-14T13:30:57.643Z,25.90
2022-09-14T13:33:25.985Z,25.50
2022-09-14T13:35:55.199Z,25.10
2022-09-14T13:38:24.548Z,24.90
2022-09-14T13:40:53.576Z,24.70
2022-09-14T13:43:22.252Z,24.60
2022-09-14T13:45:52.137Z,24.50
2022-09-14T13:48:20.699Z,24.50
2022-09-14T13:50:49.500Z,24.50
2022-09-14T13:53:35.980Z,24.40
2022-09-14T13:56:16.598Z,24.30
2022-09-14T13:58:44.579Z,24.10
2022-09-14T14:01:15.984Z,24.00
2022-09-14T14:03:48.794Z,23.80
2022-09-14T14:06:20.862Z,23.50
2022-09-14T14:08:54.363Z,23.30
2022-09-14T14:11:27.789Z,23.00
2022-09-14T14:13:56.248Z,22.80
2022-09-14T14:16:26.991Z,22.80
2022-09-14T14:18:55.461Z,22.70
2022-09-14T14:21:28.295Z,22.70
2022-09-14T14:24:13.357Z,22.70
2022-09-14T14:26:48.072Z,22.80
2022-09-14T14:29:17.614Z,22.80
2022-09-14T14:31:47.170Z,22.70
2022-09-14T14:34:19.608Z,22.70
2022-09-14T14:36:50.037Z,22.80
2022-09-14T14:39:19.439Z,22.90
2022-09-14T14:41:47.971Z,22.90
2022-09-14T14:44:17.894Z,22.90
2022-09-14T14:46:47.415Z,22.90
2022-09-14T14:49:17.128Z,22.90
2022-09-14T14:51:45.589Z,23.00
2022-09-14T14:54:16.755Z,23.00
2022-09-14T14:56:46.499Z,23.00
2022-09-14T14:59:23.463Z,22.90
2022-09-14T15:01:53.906Z,22.90
2022-09-14T15:04:21.873Z,22.70
2022-09-14T15:06:50.227Z,22.60
2022-09-14T15:09:19.521Z,22.60
2022-09-14T15:11:48.811Z,22.70
2022-09-14T15:14:17.545Z,22.70
2022-09-14T15:16:46.057Z,22.70
2022-09-14T15:19:15.638Z,22.50
2022-09-14T15:21:43.680Z,22.20
2022-09-14T15:24:12.115Z,22.00
2022-09-14T15:26:40.256Z,21.80
2022-09-14T15:29:09.244Z,21.70
2022-09-14T15:31:37.287Z,21.70
2022-09-14T15:34:05.322Z,21.60
2022-09-14T15:36:38.076Z,21.60
2022-09-14T15:39:06.341Z,21.60
2022-09-14T15:41:34.263Z,21.50
2022-09-14T15:44:03.707Z,21.50
2022-09-14T15:46:32.012Z,21.60
2022-09-14T15:49:00.086Z,21.70
2022-09-14T15:51:28.159Z,21.50
2022-09-14T15:53:58.630Z,21.40
2022-09-14T15:56:26.609Z,21.30
2022-09-14T15:58:54.773Z,21.30
2022-09-14T16:01:22.813Z,21.40
2022-09-14T16:03:50.942Z,21.60
2022-09-14T16:06:18.930Z,21.60
2022-09-14T16:08:47.110Z,21.60
2022-09-14T16:11:16.512Z,21.70
2022-09-14T16:13:44.558Z,21.70
2022-09-14T16:16:13.618Z,21.60
2022-09-14T16:18:42.235Z,21.60
2022-09-14T16:21:11.114Z,21.60
2022-09-14T16:23:40.237Z,21.60
2022-09-14T16:26:10.334Z,21.70
2022-09-14T16:28:40.040Z,21.60
2022-09-14T16:31:08.591Z,21.60
2022-09-14T16:33:38.464Z,21.60
2022-09-14T16:36:07.991Z,21.60
2022-09-14T16:38:36.520Z,21.60
2022-09-14T16:41:04.807Z,21.60
2022-09-14T16:43:33.550Z,21.60
2022-09-14T16:46:04.151Z,21.50
2022-09-14T16:48:32.563Z,21.50
2022-09-14T16:51:01.995Z,21.40
2022-09-14T16:53:30.380Z,21.40
2022-09-14T16:56:02.894Z,21.30
2022-09-14T16:58:31.010Z,21.20
2022-09-14T17:01:07.001Z,21.20
2022-09-14T17:03:36.606Z,21.20
2022-09-14T17:06:05.428Z,21.20
2022-09-14T17:08:34.166Z,21.10
2022-09-14T17:11:04.249Z,20.90
2022-09-14T17:13:32.580Z,20.80
2022-09-14T17:16:04.146Z,20.80
2022-09-14T17:18:32.250Z,20.70
2022-09-14T17:21:02.493Z,20.60
2022-09-14T17:23:30.576Z,20.40
2022-09-14T17:25:58.496Z,20.20
2022-09-14T17:28:27.390Z,20.00
2022-09-14T17:31:00.959Z,19.90
2022-09-14T17:33:30.079Z,19.90
2022-09-14T17:35:59.371Z,19.90
2022-09-14T17:38:29.682Z,19.90
2022-09-14T17:41:01.148Z,19.90
2022-09-14T17:43:29.037Z,20.00
2022-09-14T17:45:58.220Z,20.00
2022-09-14T17:48:26.483Z,20.10
2022-09-14T17:50:54.514Z,20.20
2022-09-14T17:53:22.560Z,20.20
2022-09-14T17:55:51.847Z,20.30
2022-09-14T17:58:20.147Z,20.20
2022-09-14T18:00:48.689Z,20.20
2022-09-14T18:03:16.850Z,20.20
2022-09-14T18:05:54.407Z,20.20
2022-09-14T18:08:22.727Z,20.10
2022-09-14T18:10:52.615Z,20.10
2022-09-14T18:13:20.782Z,20.10
2022-09-14T18:15:49.171Z,20.10
2022-09-14T18:18:17.762Z,20.10
2022-09-14T18:20:46.016Z,20.00
2022-09-14T18:23:13.974Z,20.00
2022-09-14T18:25:42.224Z,20.00
2022-09-14T18:28:11.575Z,20.00
2022-09-14T18:30:43.518Z,20.00
2022-09-14T18:33:11.995Z,20.00
2022-09-14T18:35:40.317Z,20.00
2022-09-14T18:38:08.311Z,20.00
2022-09-14T18:40:36.729Z,20.00
2022-09-14T18:43:04.798Z,20.00
2022-09-14T18:45:35.338Z,19.90
2022-09-14T18:48:03.779Z,19.80
2022-09-14T18:50:33.120Z,19.70
2022-09-14T18:53:02.518Z,19.60
2022-09-14T18:55:32.002Z,19.60
2022-09-14T18:58:00.527Z,19.50
2022-09-14T19:00:28.852Z,19.40
2022-09-14T19:02:58.691Z,19.40
2022-09-14T19:05:27.769Z,19.30
2022-09-14T19:07:55.710Z,19.20
2022-09-14T19:10:23.836Z,19.20
2022-09-14T19:12:52.123Z,19.10
2022-09-14T19:15:21.080Z,19.10
2022-09-14T19:17:49.303Z,19.00
2022-09-14T19:20:22.674Z,18.90
2022-09-14T19:22:51.690Z,18.90
2022-09-14T19:25:19.901Z,18.90
2022-09-14T19:27:49.736Z,18.80
2022-09-14T19:30:18.323Z,18.60
2022-09-14T19:32:46.474Z,18.50
2022-09-14T19:35:14.654Z,18.40
2022-09-14T19:37:44.079Z,18.30
2022-09-14T19:40:12.550Z,18.20
2022-09-14T19:42:41.984Z,18.20
2022-09-14T19:45:10.523Z,18.20
2022-09-14T19:47:38.776Z,18.10
2022-09-14T19:50:08.159Z,18.10
2022-09-14T19:52:36.719Z,18.00
2022-09-14T19:55:06.653Z,18.00
2022-09-14T19:57:36.651Z,18.00
2022-09-14T20:00:06.452Z,18.10
2022-09-14T20:02:34.605Z,18.10
2022-09-14T20:05:02.726Z,18.10
2022-09-14T20:07:30.998Z,18.10
2022-09-14T20:09:59.178Z,18.10
2022-09-14T20:12:31.595Z,18.20
2022-09-14T20:14:59.874Z,18.20
2022-09-14T20:17:28.379Z,18.10
2022-09-14T20:19:56.474Z,18.10
2022-09-14T20:22:24.495Z,18.10
2022-09-14T20:24:52.830Z,18.20
2022-09-14T20:27:21.378Z,18.20
2022-09-14T20:29:50.743Z,18.10
2022-09-14T20:32:20.324Z,18.10
2022-09-14T20:34:48.352Z,18.00
2022-09-14T20:37:17.570Z,18.00
2022-09-14T20:39:45.827Z,18.00
2022-09-14T20:42:13.967Z,18.00
2022-09-14T20:44:42.012Z,18.10
2022-09-14T20:47:11.359Z,18.00
2022-09-14T20:49:39.466Z,18.00
2022-09-14T20:52:07.461Z,18.00
2022-09-14T20:54:35.488Z,17.90
2022-09-14T20:57:04.619Z,17.90
2022-09-14T20:59:32.947Z,17.90
2022-09-14T21:02:04.774Z,17.90
2022-09-14T21:04:35.414Z,17.90
2022-09-14T21:07:03.229Z,17.90
2022-09-14T21:09:31.944Z,17.90
2022-09-14T21:12:00.314Z,17.80
2022-09-14T21:14:28.550Z,17.70
2022-09-14T21:16:57.458Z,17.70
2022-09-14T21:19:26.924Z,17.70
2022-09-14T21:21:56.282Z,17.70
2022-09-14T21:24:24.624Z,17.80
2022-09-14T21:26:52.515Z,17.80
2022-09-14T21:29:23.033Z,17.80
2022-09-14T21:31:51.147Z,17.90
2022-09-14T21:34:19.392Z,17.90
2022-09-14T21:36:49.014Z,17.90
2022-09-14T21:39:22.095Z,17.90
2022-09-14T21:41:54.466Z,17.80
2022-09-14T21:44:28.370Z,17.80
2022-09-14T21:46:56.267Z,17.80
2022-09-14T21:49:24.135Z,17.70
2022-09-14T21:51:53.914Z,17.70
2022-09-14T21:54:23.329Z,17.70
2022-09-14T21:56:51.187Z,17.80
2022-09-14T21:59:19.893Z,17.80
2022-09-14T22:01:48.342Z,17.80
2022-09-14T22:04:17.060Z,17.80
2022-09-14T22:06:46.121Z,17.90
2022-09-14T22:09:14.427Z,17.90
2022-09-14T22:11:44.104Z,17.90
2022-09-14T22:14:18.078Z,17.90
2022-09-14T22:16:46.082Z,18.00
2022-09-14T22:19:16.377Z,18.00
2022-09-14T22:21:44.977Z,18.10
2022-09-14T22:24:14.070Z,18.10
2022-09-14T22:26:44.202Z,18.20
2022-09-14T22:29:12.913Z,18.30
2022-09-14T22:31:41.683Z,18.30
2022-09-14T22:34:09.989Z,18.30
2022-09-14T22:36:38.107Z,18.30
2022-09-14T22:39:07.007Z,18.30
2022-09-14T22:41:35.213Z,18.30
2022-09-14T22:44:05.161Z,18.30
2022-09-14T22:46:33.573Z,18.30
2022-09-14T22:49:01.471Z,18.30
2022-09-14T22:51:29.885Z,18.30
2022-09-14T22:53:57.940Z,18.20
2022-09-14T22:56:26.979Z,18.20
2022-09-14T22:58:55.104Z,18.20
2022-09-14T23:01:25.283Z,18.20
2022-09-14T23:03:55.747Z,18.30
2022-09-14T23:06:26.174Z,18.30
2022-09-14T23:08:53.984Z,18.30
2022-09-14T23:11:21.948Z,18.30
2022-09-14T23:13:50.105Z,18.30
2022-09-14T23:16:18.683Z,18.30
2022-09-14T23:18:50.993Z,18.30
2022-09-14T23:21:18.889Z,18.30
2022-09-14T23:23:51.139Z,18.30
2022-09-14T23:26:19.154Z,18.20
2022-09-14T23:28:51.410Z,18.30
2022-09-14T23:31:20.613Z,18.20
2022-09-14T23:33:53.833Z,18.30
2022-09-14T23:36:22.869Z,18.30
2022-09-14T23:38:50.971Z,18.20
2022-09-14T23:41:19.735Z,18.20
2022-09-14T23:43:48.086Z,18.20
2022-09-14T23:46:16.141Z,18.30
2022-09-14T23:48:44.145Z,18.30
2022-09-14T23:51:13.807Z,18.30
2022-09-14T23:53:41.973Z,18.20
2022-09-14T23:56:10.954Z,18.20
2022-09-14T23:58:39.276Z,18.20
